sensor_id;sensor_type;location;lat;lon;timestamp;P1;durP1;ratioP1;P2;durP2;ratioP2
62179;SDS011;48172;53.374;10.722;2022-11-09T00:01:38;105.32;;;80.88;;
62179;SDS011;48172;53.374;10.722;2022-11-09T00:04:05;105.10;;;79.95;;
62179;SDS011;48172;53.374;10.722;2022-11-09T00:06:33;102.88;;;79.82;;
62179;SDS011;48172;53.374;10.722;2022-11-09T00:09:01;103.60;;;80.00;;
62179;SDS011;48172;53.374;10.722;2022-11-09T00:11:33;101.70;;;77.25;;
62179;SDS011;48172;53.374;10.722;2022-11-09T00:14:00;98.68;;;77.55;;
62179;SDS011;48172;53.374;10.722;2022-11-09T00:16:26;96.93;;;74.63;;
62179;SDS011;48172;53.374;10.722;2022-11-09T00:18:53;97.57;;;73.65;;
62179;SDS011;48172;53.374;10.722;2022-11-09T00:21:21;104.93;;;77.40;;
62179;SDS011;48172;53.374;10.722;2022-11-09T00:23:49;100.28;;;77.55;;
62179;SDS011;48172;53.374;10.722;2022-11-09T00:26:16;97.30;;;74.80;;
62179;SDS011;48172;53.374;10.722;2022-11-09T00:28:44;93.18;;;71.82;;
62179;SDS011;48172;53.374;10.722;2022-11-09T00:31:12;90.53;;;72.30;;
62179;SDS011;48172;53.374;10.722;2022-11-09T00:33:40;92.40;;;70.97;;
62179;SDS011;48172;53.374;10.722;2022-11-09T00:36:09;96.95;;;73.85;;
62179;SDS011;48172;53.374;10.722;2022-11-09T00:38:37;93.28;;;73.55;;
62179;SDS011;48172;53.374;10.722;2022-11-09T00:41:08;92.03;;;70.57;;
62179;SDS011;48172;53.374;10.722;2022-11-09T00:43:36;90.97;;;70.45;;
62179;SDS011;48172;53.374;10.722;2022-11-09T00:46:03;90.45;;;70.45;;
62179;SDS011;48172;53.374;10.722;2022-11-09T00:48:30;88.72;;;68.93;;
62179;SDS011;48172;53.374;10.722;2022-11-09T00:50:56;86.60;;;67.20;;
62179;SDS011;48172;53.374;10.722;2022-11-09T00:53:23;82.40;;;65.82;;
62179;SDS011;48172;53.374;10.722;2022-11-09T00:55:54;83.88;;;65.93;;
62179;SDS011;48172;53.374;10.722;2022-11-09T00:58:22;83.82;;;65.82;;
62179;SDS011;48172;53.374;10.722;2022-11-09T01:00:50;84.72;;;69.10;;
62179;SDS011;48172;53.374;10.722;2022-11-09T01:03:17;81.65;;;64.53;;
62179;SDS011;48172;53.374;10.722;2022-11-09T01:05:44;85.85;;;66.40;;
62179;SDS011;48172;53.374;10.722;2022-11-09T01:08:11;82.28;;;64.90;;
62179;SDS011;48172;53.374;10.722;2022-11-09T01:10:39;83.18;;;64.57;;
62179;SDS011;48172;53.374;10.722;2022-11-09T01:13:08;80.55;;;64.50;;
62179;SDS011;48172;53.374;10.722;2022-11-09T01:15:40;79.32;;;61.92;;
62179;SDS011;48172;53.374;10.722;2022-11-09T01:18:08;79.15;;;63.15;;
62179;SDS011;48172;53.374;10.722;2022-11-09T01:20:41;78.93;;;60.85;;
62179;SDS011;48172;53.374;10.722;2022-11-09T01:23:10;81.55;;;62.95;;
62179;SDS011;48172;53.374;10.722;2022-11-09T01:25:40;77.35;;;60.78;;
62179;SDS011;48172;53.374;10.722;2022-11-09T01:28:07;77.97;;;61.83;;
62179;SDS011;48172;53.374;10.722;2022-11-09T01:30:35;75.00;;;59.38;;
62179;SDS011;48172;53.374;10.722;2022-11-09T01:33:03;71.30;;;56.85;;
62179;SDS011;48172;53.374;10.722;2022-11-09T01:35:36;74.90;;;57.90;;
62179;SDS011;48172;53.374;10.722;2022-11-09T01:38:04;69.10;;;56.47;;
62179;SDS011;48172;53.374;10.722;2022-11-09T01:40:32;73.50;;;58.10;;
62179;SDS011;48172;53.374;10.722;2022-11-09T01:43:17;73.05;;;57.47;;
62179;SDS011;48172;53.374;10.722;2022-11-09T01:45:47;70.95;;;54.63;;
62179;SDS011;48172;53.374;10.722;2022-11-09T01:48:30;69.53;;;55.28;;
62179;SDS011;48172;53.374;10.722;2022-11-09T01:51:02;71.30;;;55.72;;
62179;SDS011;48172;53.374;10.722;2022-11-09T01:53:35;65.65;;;54.35;;
62179;SDS011;48172;53.374;10.722;2022-11-09T01:56:05;69.65;;;55.33;;
62179;SDS011;48172;53.374;10.722;2022-11-09T01:58:36;67.70;;;55.47;;
62179;SDS011;48172;53.374;10.722;2022-11-09T02:01:07;69.57;;;53.95;;
62179;SDS011;48172;53.374;10.722;2022-11-09T02:03:41;67.38;;;52.97;;
62179;SDS011;48172;53.374;10.722;2022-11-09T02:06:16;66.25;;;52.45;;
62179;SDS011;48172;53.374;10.722;2022-11-09T02:08:45;69.38;;;53.50;;
62179;SDS011;48172;53.374;10.722;2022-11-09T02:11:14;63.97;;;51.45;;
62179;SDS011;48172;53.374;10.722;2022-11-09T02:13:47;64.32;;;51.88;;
62179;SDS011;48172;53.374;10.722;2022-11-09T02:16:21;66.07;;;53.53;;
62179;SDS011;48172;53.374;10.722;2022-11-09T02:18:55;61.50;;;50.17;;
62179;SDS011;48172;53.374;10.722;2022-11-09T02:21:24;61.72;;;50.33;;
62179;SDS011;48172;53.374;10.722;2022-11-09T02:23:53;62.72;;;50.20;;
62179;SDS011;48172;53.374;10.722;2022-11-09T02:26:25;61.78;;;50.67;;
62179;SDS011;48172;53.374;10.722;2022-11-09T02:28:55;59.63;;;48.97;;
62179;SDS011;48172;53.374;10.722;2022-11-09T02:31:24;61.38;;;50.28;;
62179;SDS011;48172;53.374;10.722;2022-11-09T02:33:58;58.27;;;48.90;;
62179;SDS011;48172;53.374;10.722;2022-11-09T02:36:45;58.75;;;48.13;;
62179;SDS011;48172;53.374;10.722;2022-11-09T02:39:13;59.50;;;48.92;;
62179;SDS011;48172;53.374;10.722;2022-11-09T02:41:43;56.33;;;46.90;;
62179;SDS011;48172;53.374;10.722;2022-11-09T02:44:15;58.90;;;48.35;;
62179;SDS011;48172;53.374;10.722;2022-11-09T02:46:43;55.17;;;46.40;;
62179;SDS011;48172;53.374;10.722;2022-11-09T02:49:10;56.35;;;46.83;;
62179;SDS011;48172;53.374;10.722;2022-11-09T02:51:36;56.45;;;46.05;;
62179;SDS011;48172;53.374;10.722;2022-11-09T02:54:03;56.35;;;45.97;;
62179;SDS011;48172;53.374;10.722;2022-11-09T02:56:30;55.40;;;45.08;;
62179;SDS011;48172;53.374;10.722;2022-11-09T02:58:56;52.80;;;43.95;;
62179;SDS011;48172;53.374;10.722;2022-11-09T03:01:23;52.97;;;43.88;;
62179;SDS011;48172;53.374;10.722;2022-11-09T03:03:52;54.20;;;43.60;;
62179;SDS011;48172;53.374;10.722;2022-11-09T03:06:19;53.03;;;44.55;;
62179;SDS011;48172;53.374;10.722;2022-11-09T03:08:45;51.25;;;43.42;;
62179;SDS011;48172;53.374;10.722;2022-11-09T03:11:12;51.15;;;42.58;;
62179;SDS011;48172;53.374;10.722;2022-11-09T03:13:38;56.08;;;44.63;;
62179;SDS011;48172;53.374;10.722;2022-11-09T03:16:06;51.67;;;41.92;;
62179;SDS011;48172;53.374;10.722;2022-11-09T03:18:33;51.20;;;42.05;;
62179;SDS011;48172;53.374;10.722;2022-11-09T03:21:03;49.95;;;40.72;;
62179;SDS011;48172;53.374;10.722;2022-11-09T03:23:31;50.08;;;42.05;;
62179;SDS011;48172;53.374;10.722;2022-11-09T03:25:57;46.47;;;39.72;;
62179;SDS011;48172;53.374;10.722;2022-11-09T03:28:24;53.08;;;41.42;;
62179;SDS011;48172;53.374;10.722;2022-11-09T03:30:50;49.85;;;42.28;;
62179;SDS011;48172;53.374;10.722;2022-11-09T03:33:17;48.40;;;40.13;;
62179;SDS011;48172;53.374;10.722;2022-11-09T03:35:44;46.85;;;39.72;;
62179;SDS011;48172;53.374;10.722;2022-11-09T03:38:10;48.72;;;40.30;;
62179;SDS011;48172;53.374;10.722;2022-11-09T03:40:37;47.33;;;40.22;;
62179;SDS011;48172;53.374;10.722;2022-11-09T03:43:04;46.40;;;39.35;;
62179;SDS011;48172;53.374;10.722;2022-11-09T03:45:31;46.30;;;38.60;;
62179;SDS011;48172;53.374;10.722;2022-11-09T03:47:57;47.72;;;38.58;;
62179;SDS011;48172;53.374;10.722;2022-11-09T03:50:29;47.80;;;39.00;;
62179;SDS011;48172;53.374;10.722;2022-11-09T03:52:58;45.65;;;37.67;;
62179;SDS011;48172;53.374;10.722;2022-11-09T03:55:25;46.53;;;38.25;;
62179;SDS011;48172;53.374;10.722;2022-11-09T03:57:52;43.60;;;37.55;;
62179;SDS011;48172;53.374;10.722;2022-11-09T04:00:19;42.22;;;36.40;;
62179;SDS011;48172;53.374;10.722;2022-11-09T04:02:47;43.88;;;37.53;;
62179;SDS011;48172;53.374;10.722;2022-11-09T04:05:14;44.97;;;37.22;;
62179;SDS011;48172;53.374;10.722;2022-11-09T04:07:45;40.75;;;35.63;;
62179;SDS011;48172;53.374;10.722;2022-11-09T04:10:13;40.90;;;35.47;;
62179;SDS011;48172;53.374;10.722;2022-11-09T04:12:40;41.72;;;36.50;;
62179;SDS011;48172;53.374;10.722;2022-11-09T04:15:06;44.15;;;36.42;;
62179;SDS011;48172;53.374;10.722;2022-11-09T04:17:33;40.95;;;34.65;;
62179;SDS011;48172;53.374;10.722;2022-11-09T04:19:59;41.10;;;34.33;;
62179;SDS011;48172;53.374;10.722;2022-11-09T04:22:27;41.53;;;34.72;;
62179;SDS011;48172;53.374;10.722;2022-11-09T04:24:53;41.13;;;34.35;;
62179;SDS011;48172;53.374;10.722;2022-11-09T04:27:19;41.03;;;34.67;;
62179;SDS011;48172;53.374;10.722;2022-11-09T04:29:46;40.83;;;33.80;;
62179;SDS011;48172;53.374;10.722;2022-11-09T04:32:12;38.80;;;33.28;;
62179;SDS011;48172;53.374;10.722;2022-11-09T04:34:39;38.85;;;33.50;;
62179;SDS011;48172;53.374;10.722;2022-11-09T04:37:07;38.08;;;33.42;;
62179;SDS011;48172;53.374;10.722;2022-11-09T04:39:33;38.47;;;33.45;;
62179;SDS011;48172;53.374;10.722;2022-11-09T04:42:00;40.25;;;33.88;;
62179;SDS011;48172;53.374;10.722;2022-11-09T04:44:27;38.72;;;31.83;;
62179;SDS011;48172;53.374;10.722;2022-11-09T04:46:57;40.33;;;33.50;;
62179;SDS011;48172;53.374;10.722;2022-11-09T04:49:23;37.90;;;31.25;;
62179;SDS011;48172;53.374;10.722;2022-11-09T04:51:49;37.17;;;31.58;;
62179;SDS011;48172;53.374;10.722;2022-11-09T04:54:16;37.97;;;31.20;;
62179;SDS011;48172;53.374;10.722;2022-11-09T04:56:42;36.83;;;31.45;;
62179;SDS011;48172;53.374;10.722;2022-11-09T04:59:09;36.67;;;30.85;;
62179;SDS011;48172;53.374;10.722;2022-11-09T05:01:35;37.42;;;30.98;;
62179;SDS011;48172;53.374;10.722;2022-11-09T05:04:02;34.97;;;29.23;;
62179;SDS011;48172;53.374;10.722;2022-11-09T05:06:28;36.42;;;30.98;;
62179;SDS011;48172;53.374;10.722;2022-11-09T05:08:58;34.47;;;29.90;;
62179;SDS011;48172;53.374;10.722;2022-11-09T05:11:27;35.78;;;29.90;;
62179;SDS011;48172;53.374;10.722;2022-11-09T05:13:54;34.08;;;30.00;;
62179;SDS011;48172;53.374;10.722;2022-11-09T05:16:20;34.55;;;29.55;;
62179;SDS011;48172;53.374;10.722;2022-11-09T05:18:48;33.15;;;28.95;;
62179;SDS011;48172;53.374;10.722;2022-11-09T05:21:15;33.65;;;29.55;;
62179;SDS011;48172;53.374;10.722;2022-11-09T05:23:42;33.85;;;28.17;;
62179;SDS011;48172;53.374;10.722;2022-11-09T05:26:37;33.78;;;28.27;;
62179;SDS011;48172;53.374;10.722;2022-11-09T05:29:05;33.80;;;27.23;;
62179;SDS011;48172;53.374;10.722;2022-11-09T05:31:33;33.22;;;28.83;;
62179;SDS011;48172;53.374;10.722;2022-11-09T05:34:00;31.40;;;26.73;;
62179;SDS011;48172;53.374;10.722;2022-11-09T05:36:27;31.92;;;26.73;;
62179;SDS011;48172;53.374;10.722;2022-11-09T05:38:56;29.60;;;26.25;;
62179;SDS011;48172;53.374;10.722;2022-11-09T05:41:23;31.35;;;27.58;;
62179;SDS011;48172;53.374;10.722;2022-11-09T05:43:49;31.63;;;26.98;;
62179;SDS011;48172;53.374;10.722;2022-11-09T05:46:16;31.95;;;26.63;;
62179;SDS011;48172;53.374;10.722;2022-11-09T05:48:44;31.00;;;26.90;;
62179;SDS011;48172;53.374;10.722;2022-11-09T05:51:11;30.10;;;25.75;;
62179;SDS011;48172;53.374;10.722;2022-11-09T05:53:41;28.08;;;24.90;;
62179;SDS011;48172;53.374;10.722;2022-11-09T05:56:12;30.35;;;26.65;;
62179;SDS011;48172;53.374;10.722;2022-11-09T05:58:40;31.88;;;26.15;;
62179;SDS011;48172;53.374;10.722;2022-11-09T06:01:08;31.42;;;26.25;;
62179;SDS011;48172;53.374;10.722;2022-11-09T06:03:39;29.80;;;25.15;;
62179;SDS011;48172;53.374;10.722;2022-11-09T06:06:07;27.40;;;24.35;;
62179;SDS011;48172;53.374;10.722;2022-11-09T06:08:35;26.88;;;23.90;;
62179;SDS011;48172;53.374;10.722;2022-11-09T06:11:03;27.10;;;24.00;;
62179;SDS011;48172;53.374;10.722;2022-11-09T06:13:32;28.27;;;23.52;;
62179;SDS011;48172;53.374;10.722;2022-11-09T06:16:00;27.02;;;23.85;;
62179;SDS011;48172;53.374;10.722;2022-11-09T06:18:29;26.95;;;23.95;;
62179;SDS011;48172;53.374;10.722;2022-11-09T06:20:57;27.33;;;24.17;;
62179;SDS011;48172;53.374;10.722;2022-11-09T06:23:25;26.10;;;22.75;;
62179;SDS011;48172;53.374;10.722;2022-11-09T06:25:52;26.70;;;22.92;;
62179;SDS011;48172;53.374;10.722;2022-11-09T06:28:22;25.75;;;22.98;;
62179;SDS011;48172;53.374;10.722;2022-11-09T06:30:49;25.83;;;22.20;;
62179;SDS011;48172;53.374;10.722;2022-11-09T06:33:16;25.58;;;22.77;;
62179;SDS011;48172;53.374;10.722;2022-11-09T06:35:43;25.05;;;22.27;;
62179;SDS011;48172;53.374;10.722;2022-11-09T06:38:10;23.17;;;20.67;;
62179;SDS011;48172;53.374;10.722;2022-11-09T06:40:37;27.20;;;22.40;;
62179;SDS011;48172;53.374;10.722;2022-11-09T06:43:04;24.85;;;21.40;;
62179;SDS011;48172;53.374;10.722;2022-11-09T06:45:31;24.33;;;21.65;;
62179;SDS011;48172;53.374;10.722;2022-11-09T06:47:59;25.45;;;21.73;;
62179;SDS011;48172;53.374;10.722;2022-11-09T06:50:27;24.20;;;21.60;;
62179;SDS011;48172;53.374;10.722;2022-11-09T06:52:56;23.77;;;20.70;;
62179;SDS011;48172;53.374;10.722;2022-11-09T06:55:24;24.17;;;21.45;;
62179;SDS011;48172;53.374;10.722;2022-11-09T06:57:51;24.35;;;21.35;;
62179;SDS011;48172;53.374;10.722;2022-11-09T07:00:18;23.42;;;20.83;;
62179;SDS011;48172;53.374;10.722;2022-11-09T07:02:45;23.73;;;20.75;;
62179;SDS011;48172;53.374;10.722;2022-11-09T07:05:12;23.50;;;20.98;;
62179;SDS011;48172;53.374;10.722;2022-11-09T07:07:38;21.85;;;19.45;;
62179;SDS011;48172;53.374;10.722;2022-11-09T07:10:05;22.80;;;20.27;;
62179;SDS011;48172;53.374;10.722;2022-11-09T07:12:31;22.70;;;20.30;;
62179;SDS011;48172;53.374;10.722;2022-11-09T07:15:00;21.08;;;18.92;;
62179;SDS011;48172;53.374;10.722;2022-11-09T07:17:28;22.58;;;20.17;;
62179;SDS011;48172;53.374;10.722;2022-11-09T07:19:56;20.77;;;18.52;;
62179;SDS011;48172;53.374;10.722;2022-11-09T07:22:23;22.50;;;19.50;;
62179;SDS011;48172;53.374;10.722;2022-11-09T07:24:50;21.65;;;19.27;;
62179;SDS011;48172;53.374;10.722;2022-11-09T07:27:16;21.02;;;18.83;;
62179;SDS011;48172;53.374;10.722;2022-11-09T07:29:42;21.70;;;18.65;;
62179;SDS011;48172;53.374;10.722;2022-11-09T07:32:09;21.23;;;18.00;;
62179;SDS011;48172;53.374;10.722;2022-11-09T07:34:35;20.85;;;18.52;;
62179;SDS011;48172;53.374;10.722;2022-11-09T07:37:02;20.08;;;17.33;;
62179;SDS011;48172;53.374;10.722;2022-11-09T07:39:28;23.15;;;19.88;;
62179;SDS011;48172;53.374;10.722;2022-11-09T07:41:55;19.98;;;17.83;;
62179;SDS011;48172;53.374;10.722;2022-11-09T07:44:21;20.35;;;18.13;;
62179;SDS011;48172;53.374;10.722;2022-11-09T07:46:48;21.25;;;18.17;;
62179;SDS011;48172;53.374;10.722;2022-11-09T07:49:15;21.15;;;18.65;;
62179;SDS011;48172;53.374;10.722;2022-11-09T07:51:42;19.83;;;17.67;;
62179;SDS011;48172;53.374;10.722;2022-11-09T07:54:09;19.85;;;17.25;;
62179;SDS011;48172;53.374;10.722;2022-11-09T07:56:36;18.35;;;16.42;;
62179;SDS011;48172;53.374;10.722;2022-11-09T07:59:03;18.45;;;16.45;;
62179;SDS011;48172;53.374;10.722;2022-11-09T08:01:30;18.52;;;16.55;;
62179;SDS011;48172;53.374;10.722;2022-11-09T08:03:57;19.15;;;17.08;;
62179;SDS011;48172;53.374;10.722;2022-11-09T08:06:23;19.23;;;16.75;;
62179;SDS011;48172;53.374;10.722;2022-11-09T08:08:53;18.00;;;16.10;;
62179;SDS011;48172;53.374;10.722;2022-11-09T08:11:20;18.45;;;16.55;;
62179;SDS011;48172;53.374;10.722;2022-11-09T08:13:47;17.83;;;15.77;;
62179;SDS011;48172;53.374;10.722;2022-11-09T08:16:13;18.20;;;16.08;;
62179;SDS011;48172;53.374;10.722;2022-11-09T08:18:40;18.30;;;16.40;;
62179;SDS011;48172;53.374;10.722;2022-11-09T08:21:06;17.60;;;15.70;;
62179;SDS011;48172;53.374;10.722;2022-11-09T08:23:33;17.70;;;15.73;;
62179;SDS011;48172;53.374;10.722;2022-11-09T08:26:03;16.25;;;14.48;;
62179;SDS011;48172;53.374;10.722;2022-11-09T08:28:31;17.63;;;15.82;;
62179;SDS011;48172;53.374;10.722;2022-11-09T08:30:58;17.00;;;15.02;;
62179;SDS011;48172;53.374;10.722;2022-11-09T08:33:28;16.17;;;14.48;;
62179;SDS011;48172;53.374;10.722;2022-11-09T08:35:58;16.73;;;15.02;;
62179;SDS011;48172;53.374;10.722;2022-11-09T08:38:25;18.17;;;16.27;;
62179;SDS011;48172;53.374;10.722;2022-11-09T08:41:00;16.98;;;14.57;;
62179;SDS011;48172;53.374;10.722;2022-11-09T08:43:26;16.83;;;15.02;;
62179;SDS011;48172;53.374;10.722;2022-11-09T08:45:53;16.63;;;14.90;;
62179;SDS011;48172;53.374;10.722;2022-11-09T08:48:19;16.45;;;14.40;;
62179;SDS011;48172;53.374;10.722;2022-11-09T08:50:50;15.30;;;13.10;;
62179;SDS011;48172;53.374;10.722;2022-11-09T08:53:26;15.95;;;14.32;;
62179;SDS011;48172;53.374;10.722;2022-11-09T08:55:53;15.05;;;13.35;;
62179;SDS011;48172;53.374;10.722;2022-11-09T08:58:20;17.13;;;15.32;;
62179;SDS011;48172;53.374;10.722;2022-11-09T09:00:47;15.75;;;14.13;;
62179;SDS011;48172;53.374;10.722;2022-11-09T09:03:14;16.08;;;13.90;;
62179;SDS011;48172;53.374;10.722;2022-11-09T09:05:41;15.40;;;13.82;;
62179;SDS011;48172;53.374;10.722;2022-11-09T09:08:08;16.67;;;14.88;;
62179;SDS011;48172;53.374;10.722;2022-11-09T09:10:36;15.23;;;13.60;;
62179;SDS011;48172;53.374;10.722;2022-11-09T09:13:03;15.40;;;13.80;;
62179;SDS011;48172;53.374;10.722;2022-11-09T09:15:30;14.75;;;13.20;;
62179;SDS011;48172;53.374;10.722;2022-11-09T09:18:00;14.55;;;13.05;;
62179;SDS011;48172;53.374;10.722;2022-11-09T09:20:27;14.52;;;13.02;;
62179;SDS011;48172;53.374;10.722;2022-11-09T09:22:56;14.15;;;12.68;;
62179;SDS011;48172;53.374;10.722;2022-11-09T09:25:24;14.50;;;13.00;;
62179;SDS011;48172;53.374;10.722;2022-11-09T09:27:51;14.00;;;12.52;;
62179;SDS011;48172;53.374;10.722;2022-11-09T09:30:18;13.40;;;11.98;;
62179;SDS011;48172;53.374;10.722;2022-11-09T09:32:45;13.63;;;12.13;;
62179;SDS011;48172;53.374;10.722;2022-11-09T09:35:11;13.85;;;12.35;;
62179;SDS011;48172;53.374;10.722;2022-11-09T09:37:38;14.48;;;12.98;;
62179;SDS011;48172;53.374;10.722;2022-11-09T09:40:05;13.23;;;11.93;;
62179;SDS011;48172;53.374;10.722;2022-11-09T09:42:35;12.85;;;11.55;;
62179;SDS011;48172;53.374;10.722;2022-11-09T09:48:15;13.82;;;12.13;;
62179;SDS011;48172;53.374;10.722;2022-11-09T09:50:57;12.80;;;11.50;;
62179;SDS011;48172;53.374;10.722;2022-11-09T09:53:33;12.93;;;11.63;;
62179;SDS011;48172;53.374;10.722;2022-11-09T09:58:57;12.98;;;11.68;;
62179;SDS011;48172;53.374;10.722;2022-11-09T10:01:35;12.52;;;11.23;;
62179;SDS011;48172;53.374;10.722;2022-11-09T10:04:29;12.48;;;11.18;;
62179;SDS011;48172;53.374;10.722;2022-11-09T10:07:14;12.48;;;11.00;;
62179;SDS011;48172;53.374;10.722;2022-11-09T10:12:17;11.88;;;10.68;;
62179;SDS011;48172;53.374;10.722;2022-11-09T10:26:43;11.35;;;10.18;;
62179;SDS011;48172;53.374;10.722;2022-11-09T10:32:00;11.85;;;10.65;;
62179;SDS011;48172;53.374;10.722;2022-11-09T10:34:38;11.25;;;10.00;;
62179;SDS011;48172;53.374;10.722;2022-11-09T10:37:22;10.77;;;9.68;;
62179;SDS011;48172;53.374;10.722;2022-11-09T10:42:29;11.35;;;10.05;;
62179;SDS011;48172;53.374;10.722;2022-11-09T10:44:55;10.70;;;9.20;;
62179;SDS011;48172;53.374;10.722;2022-11-09T10:47:24;11.57;;;10.38;;
62179;SDS011;48172;53.374;10.722;2022-11-09T10:52:42;10.48;;;9.38;;
62179;SDS011;48172;53.374;10.722;2022-11-09T10:55:20;10.82;;;9.73;;
62179;SDS011;48172;53.374;10.722;2022-11-09T10:57:53;11.32;;;10.10;;
62179;SDS011;48172;53.374;10.722;2022-11-09T11:00:22;9.88;;;8.88;;
62179;SDS011;48172;53.374;10.722;2022-11-09T11:02:49;11.88;;;9.93;;
62179;SDS011;48172;53.374;10.722;2022-11-09T11:07:44;10.27;;;9.18;;
62179;SDS011;48172;53.374;10.722;2022-11-09T11:12:41;10.23;;;9.23;;
62179;SDS011;48172;53.374;10.722;2022-11-09T11:15:20;9.60;;;8.70;;
62179;SDS011;48172;53.374;10.722;2022-11-09T11:17:50;9.63;;;8.63;;
62179;SDS011;48172;53.374;10.722;2022-11-09T11:20:36;9.18;;;8.18;;
62179;SDS011;48172;53.374;10.722;2022-11-09T11:28:41;8.82;;;7.93;;
62179;SDS011;48172;53.374;10.722;2022-11-09T11:31:12;9.40;;;8.40;;
62179;SDS011;48172;53.374;10.722;2022-11-09T11:33:41;8.02;;;7.22;;
62179;SDS011;48172;53.374;10.722;2022-11-09T11:45:13;9.55;;;7.80;;
62179;SDS011;48172;53.374;10.722;2022-11-09T11:48:23;8.00;;;7.03;;
62179;SDS011;48172;53.374;10.722;2022-11-09T11:51:10;8.55;;;7.72;;
62179;SDS011;48172;53.374;10.722;2022-11-09T11:56:35;8.40;;;7.55;;
62179;SDS011;48172;53.374;10.722;2022-11-09T11:59:12;8.85;;;7.78;;
62179;SDS011;48172;53.374;10.722;2022-11-09T12:10:27;8.30;;;7.40;;
62179;SDS011;48172;53.374;10.722;2022-11-09T12:13:16;8.35;;;7.43;;
62179;SDS011;48172;53.374;10.722;2022-11-09T12:15:58;8.20;;;7.40;;
62179;SDS011;48172;53.374;10.722;2022-11-09T12:18:39;8.35;;;7.40;;
62179;SDS011;48172;53.374;10.722;2022-11-09T12:24:00;8.32;;;7.50;;
62179;SDS011;48172;53.374;10.722;2022-11-09T12:32:42;7.25;;;6.53;;
62179;SDS011;48172;53.374;10.722;2022-11-09T12:41:17;7.25;;;6.55;;
62179;SDS011;48172;53.374;10.722;2022-11-09T12:46:37;7.22;;;6.53;;
62179;SDS011;48172;53.374;10.722;2022-11-09T12:49:21;5.95;;;5.38;;
62179;SDS011;48172;53.374;10.722;2022-11-09T12:51:59;6.63;;;5.95;;
62179;SDS011;48172;53.374;10.722;2022-11-09T12:54:26;7.57;;;6.88;;
62179;SDS011;48172;53.374;10.722;2022-11-09T12:57:15;6.93;;;6.22;;
62179;SDS011;48172;53.374;10.722;2022-11-09T13:02:22;6.95;;;6.25;;
62179;SDS011;48172;53.374;10.722;2022-11-09T13:04:53;7.07;;;6.38;;
62179;SDS011;48172;53.374;10.722;2022-11-09T13:07:41;7.25;;;6.55;;
62179;SDS011;48172;53.374;10.722;2022-11-09T13:13:00;6.60;;;5.93;;
62179;SDS011;48172;53.374;10.722;2022-11-09T13:15:28;6.45;;;5.80;;
62179;SDS011;48172;53.374;10.722;2022-11-09T13:20:43;6.35;;;5.75;;
62179;SDS011;48172;53.374;10.722;2022-11-09T13:23:30;5.82;;;5.22;;
62179;SDS011;48172;53.374;10.722;2022-11-09T13:26:53;6.63;;;6.00;;
62179;SDS011;48172;53.374;10.722;2022-11-09T13:34:39;6.25;;;5.60;;
62179;SDS011;48172;53.374;10.722;2022-11-09T13:43:05;6.05;;;5.45;;
62179;SDS011;48172;53.374;10.722;2022-11-09T13:46:03;5.68;;;5.07;;
62179;SDS011;48172;53.374;10.722;2022-11-09T13:48:43;5.60;;;5.10;;
62179;SDS011;48172;53.374;10.722;2022-11-09T13:54:43;5.75;;;5.15;;
62179;SDS011;48172;53.374;10.722;2022-11-09T13:56:55;5.20;;;4.70;;
62179;SDS011;48172;53.374;10.722;2022-11-09T13:59:26;5.75;;;5.18;;
62179;SDS011;48172;53.374;10.722;2022-11-09T14:01:57;5.90;;;5.30;;
62179;SDS011;48172;53.374;10.722;2022-11-09T14:04:43;6.25;;;5.65;;
62179;SDS011;48172;53.374;10.722;2022-11-09T14:07:21;6.43;;;5.70;;
62179;SDS011;48172;53.374;10.722;2022-11-09T14:18:34;6.03;;;5.43;;
62179;SDS011;48172;53.374;10.722;2022-11-09T14:23:53;5.75;;;4.85;;
62179;SDS011;48172;53.374;10.722;2022-11-09T14:26:21;5.80;;;5.20;;
62179;SDS011;48172;53.374;10.722;2022-11-09T14:28:49;5.45;;;4.90;;
62179;SDS011;48172;53.374;10.722;2022-11-09T14:31:39;4.97;;;4.55;;
62179;SDS011;48172;53.374;10.722;2022-11-09T14:34:11;4.97;;;4.47;;
62179;SDS011;48172;53.374;10.722;2022-11-09T14:36:41;5.03;;;4.60;;
62179;SDS011;48172;53.374;10.722;2022-11-09T14:39:19;6.15;;;5.55;;
62179;SDS011;48172;53.374;10.722;2022-11-09T14:41:51;5.43;;;4.93;;
62179;SDS011;48172;53.374;10.722;2022-11-09T14:44:26;5.07;;;4.57;;
62179;SDS011;48172;53.374;10.722;2022-11-09T14:46:57;5.70;;;5.13;;
62179;SDS011;48172;53.374;10.722;2022-11-09T14:49:24;5.50;;;4.93;;
62179;SDS011;48172;53.374;10.722;2022-11-09T14:51:52;5.60;;;5.10;;
62179;SDS011;48172;53.374;10.722;2022-11-09T14:54:22;5.57;;;4.90;;
62179;SDS011;48172;53.374;10.722;2022-11-09T14:56:51;5.75;;;5.15;;
62179;SDS011;48172;53.374;10.722;2022-11-09T14:59:32;5.28;;;4.78;;
62179;SDS011;48172;53.374;10.722;2022-11-09T15:02:08;5.20;;;4.55;;
62179;SDS011;48172;53.374;10.722;2022-11-09T15:04:55;5.05;;;4.43;;
62179;SDS011;48172;53.374;10.722;2022-11-09T15:07:25;4.97;;;4.53;;
62179;SDS011;48172;53.374;10.722;2022-11-09T15:09:58;4.80;;;4.30;;
62179;SDS011;48172;53.374;10.722;2022-11-09T15:12:27;4.88;;;4.38;;
62179;SDS011;48172;53.374;10.722;2022-11-09T15:14:56;4.95;;;4.05;;
62179;SDS011;48172;53.374;10.722;2022-11-09T15:20:02;4.57;;;4.18;;
62179;SDS011;48172;53.374;10.722;2022-11-09T15:35:48;4.53;;;3.97;;
62179;SDS011;48172;53.374;10.722;2022-11-09T15:41:00;4.82;;;4.38;;
62179;SDS011;48172;53.374;10.722;2022-11-09T15:43:28;4.53;;;4.07;;
62179;SDS011;48172;53.374;10.722;2022-11-09T15:45:56;4.55;;;4.00;;
62179;SDS011;48172;53.374;10.722;2022-11-09T15:48:25;3.83;;;3.42;;
62179;SDS011;48172;53.374;10.722;2022-11-09T15:50:51;4.80;;;4.32;;
62179;SDS011;48172;53.374;10.722;2022-11-09T15:53:19;4.65;;;4.13;;
62179;SDS011;48172;53.374;10.722;2022-11-09T15:55:45;4.65;;;3.80;;
62179;SDS011;48172;53.374;10.722;2022-11-09T15:58:13;4.63;;;4.07;;
62179;SDS011;48172;53.374;10.722;2022-11-09T16:00:41;4.78;;;4.20;;
62179;SDS011;48172;53.374;10.722;2022-11-09T16:03:08;4.53;;;3.92;;
62179;SDS011;48172;53.374;10.722;2022-11-09T16:05:35;4.57;;;4.05;;
62179;SDS011;48172;53.374;10.722;2022-11-09T16:08:01;4.63;;;4.15;;
62179;SDS011;48172;53.374;10.722;2022-11-09T16:10:29;4.65;;;4.10;;
62179;SDS011;48172;53.374;10.722;2022-11-09T16:12:56;4.32;;;3.92;;
62179;SDS011;48172;53.374;10.722;2022-11-09T16:15:22;4.20;;;3.80;;
62179;SDS011;48172;53.374;10.722;2022-11-09T16:17:49;5.13;;;4.40;;
62179;SDS011;48172;53.374;10.722;2022-11-09T16:20:16;4.15;;;3.72;;
62179;SDS011;48172;53.374;10.722;2022-11-09T16:22:44;3.97;;;3.58;;
62179;SDS011;48172;53.374;10.722;2022-11-09T16:25:11;4.75;;;4.10;;
62179;SDS011;48172;53.374;10.722;2022-11-09T16:27:38;4.32;;;3.70;;
62179;SDS011;48172;53.374;10.722;2022-11-09T16:30:15;4.05;;;3.65;;
62179;SDS011;48172;53.374;10.722;2022-11-09T16:32:43;4.10;;;3.70;;
62179;SDS011;48172;53.374;10.722;2022-11-09T16:35:09;3.80;;;3.50;;
62179;SDS011;48172;53.374;10.722;2022-11-09T16:37:53;3.78;;;3.17;;
62179;SDS011;48172;53.374;10.722;2022-11-09T16:40:21;4.82;;;3.78;;
62179;SDS011;48172;53.374;10.722;2022-11-09T16:42:48;4.05;;;3.65;;